KHWD/HWD METAR and TAF weather

Enter ICAO airport designator
Station Type Date Time Source
KHWD METAR 2021/03/06 01:54 UTC NOAA

KHWD 060154Z 25008KT 10SM CLR 15/08 A3001 RMK AO2 SLP171 T01500083


Station Type Date Time Source
KHWD Decoded METAR 2021/03/06 01:54 UTC NOAA

HAYWARD AIR TERMINAL, CA, United States (KHWD) 37-40N 122-07W 21M
Mar 05, 2021 - 08:54 PM EST / 2021.03.06 0154 UTC
Wind: from the WSW (250 degrees) at 9 MPH (8 KT):0
Visibility: 10 mile(s):0
Sky conditions: clear
Temperature: 59.0 F (15.0 C)
Dew Point: 46.9 F (8.3 C)
Relative Humidity: 64%
Pressure (altimeter): 30.01 in. Hg (1016 hPa)
ob: KHWD 060154Z 25008KT 10SM CLR 15/08 A3001 RMK AO2 SLP171 T01500083
cycle: 2

Station Type Date Time Source
KHWD TAF UTC NOAA

Error!

Example: see airport list